sensor_id;sensor_type;location;lat;lon;timestamp;pressure;altitude;pressure_sealevel;temperature;humidity
75136;BME280;63707;52.212;9.540;2023-05-01T00:00:47;100453.81;;;5.84;100.00
75136;BME280;63707;52.212;9.540;2023-05-01T00:03:13;100449.28;;;5.93;100.00
75136;BME280;63707;52.212;9.540;2023-05-01T00:05:38;100442.19;;;5.92;100.00
75136;BME280;63707;52.212;9.540;2023-05-01T00:08:04;100441.63;;;5.88;100.00
75136;BME280;63707;52.212;9.540;2023-05-01T00:10:30;100436.44;;;6.44;100.00
75136;BME280;63707;52.212;9.540;2023-05-01T00:12:55;100440.50;;;6.07;100.00
75136;BME280;63707;52.212;9.540;2023-05-01T00:15:22;100436.59;;;5.93;100.00
75136;BME280;63707;52.212;9.540;2023-05-01T00:17:47;100432.38;;;5.91;100.00
75136;BME280;63707;52.212;9.540;2023-05-01T00:20:13;100433.91;;;5.93;100.00
75136;BME280;63707;52.212;9.540;2023-05-01T00:22:38;100422.59;;;6.30;100.00
75136;BME280;63707;52.212;9.540;2023-05-01T00:25:05;100428.31;;;6.11;100.00
75136;BME280;63707;52.212;9.540;2023-05-01T00:27:30;100429.34;;;5.94;100.00
75136;BME280;63707;52.212;9.540;2023-05-01T00:29:56;100422.88;;;5.79;100.00
75136;BME280;63707;52.212;9.540;2023-05-01T00:32:23;100418.69;;;6.00;100.00
75136;BME280;63707;52.212;9.540;2023-05-01T00:34:48;100414.09;;;5.85;100.00
75136;BME280;63707;52.212;9.540;2023-05-01T00:37:14;100412.94;;;5.95;100.00
75136;BME280;63707;52.212;9.540;2023-05-01T00:39:39;100415.44;;;5.81;100.00
75136;BME280;63707;52.212;9.540;2023-05-01T00:42:05;100422.47;;;5.65;100.00
75136;BME280;63707;52.212;9.540;2023-05-01T00:44:30;100408.44;;;5.54;100.00
75136;BME280;63707;52.212;9.540;2023-05-01T00:46:56;100411.31;;;5.52;100.00
75136;BME280;63707;52.212;9.540;2023-05-01T00:49:25;100407.09;;;5.58;100.00
75136;BME280;63707;52.212;9.540;2023-05-01T00:51:51;100401.88;;;5.64;100.00
75136;BME280;63707;52.212;9.540;2023-05-01T00:54:20;100398.16;;;5.65;100.00
75136;BME280;63707;52.212;9.540;2023-05-01T00:56:47;100396.13;;;5.59;100.00
75136;BME280;63707;52.212;9.540;2023-05-01T00:59:13;100386.28;;;5.42;100.00
75136;BME280;63707;52.212;9.540;2023-05-01T01:01:40;100392.38;;;5.44;100.00
75136;BME280;63707;52.212;9.540;2023-05-01T01:04:06;100385.25;;;5.35;100.00
75136;BME280;63707;52.212;9.540;2023-05-01T01:06:40;100379.53;;;5.46;100.00
75136;BME280;63707;52.212;9.540;2023-05-01T01:09:16;100378.34;;;5.49;100.00
75136;BME280;63707;52.212;9.540;2023-05-01T01:11:53;100376.13;;;5.28;100.00
75136;BME280;63707;52.212;9.540;2023-05-01T01:14:26;100368.03;;;5.28;100.00
75136;BME280;63707;52.212;9.540;2023-05-01T01:16:56;100366.50;;;5.33;100.00
75136;BME280;63707;52.212;9.540;2023-05-01T01:22:25;100361.72;;;5.19;100.00
75136;BME280;63707;52.212;9.540;2023-05-01T01:25:19;100358.56;;;5.24;100.00
75136;BME280;63707;52.212;9.540;2023-05-01T01:28:22;100351.34;;;4.98;100.00
75136;BME280;63707;52.212;9.540;2023-05-01T01:31:08;100351.75;;;5.12;100.00
75136;BME280;63707;52.212;9.540;2023-05-01T01:33:53;100347.13;;;4.96;100.00
75136;BME280;63707;52.212;9.540;2023-05-01T01:36:26;100360.50;;;4.71;100.00
75136;BME280;63707;52.212;9.540;2023-05-01T01:39:02;100349.47;;;4.91;100.00
75136;BME280;63707;52.212;9.540;2023-05-01T01:41:33;100348.03;;;5.13;100.00
75136;BME280;63707;52.212;9.540;2023-05-01T01:44:03;100338.66;;;4.83;100.00
75136;BME280;63707;52.212;9.540;2023-05-01T01:46:34;100338.47;;;4.50;100.00
75136;BME280;63707;52.212;9.540;2023-05-01T01:49:05;100337.03;;;4.64;100.00
75136;BME280;63707;52.212;9.540;2023-05-01T01:51:34;100335.41;;;4.45;100.00
75136;BME280;63707;52.212;9.540;2023-05-01T01:54:03;100333.53;;;4.37;100.00
75136;BME280;63707;52.212;9.540;2023-05-01T01:56:30;100331.31;;;4.33;100.00
75136;BME280;63707;52.212;9.540;2023-05-01T01:59:00;100331.44;;;4.57;100.00
75136;BME280;63707;52.212;9.540;2023-05-01T02:01:27;100324.78;;;4.43;100.00
75136;BME280;63707;52.212;9.540;2023-05-01T02:03:54;100318.47;;;4.27;100.00
75136;BME280;63707;52.212;9.540;2023-05-01T02:06:22;100317.91;;;4.23;100.00
75136;BME280;63707;52.212;9.540;2023-05-01T02:08:49;100313.81;;;4.37;100.00
75136;BME280;63707;52.212;9.540;2023-05-01T02:11:16;100311.78;;;4.39;100.00
75136;BME280;63707;52.212;9.540;2023-05-01T02:13:43;100299.72;;;4.25;100.00
75136;BME280;63707;52.212;9.540;2023-05-01T02:16:10;100301.97;;;4.30;100.00
75136;BME280;63707;52.212;9.540;2023-05-01T02:18:37;100295.97;;;4.18;100.00
75136;BME280;63707;52.212;9.540;2023-05-01T02:21:03;100298.78;;;4.08;100.00
75136;BME280;63707;52.212;9.540;2023-05-01T02:23:30;100294.38;;;4.07;100.00
75136;BME280;63707;52.212;9.540;2023-05-01T02:25:59;100302.44;;;3.99;100.00
75136;BME280;63707;52.212;9.540;2023-05-01T02:28:28;100294.72;;;4.04;100.00
75136;BME280;63707;52.212;9.540;2023-05-01T02:30:54;100283.72;;;3.98;100.00
75136;BME280;63707;52.212;9.540;2023-05-01T02:33:20;100277.47;;;3.97;100.00
75136;BME280;63707;52.212;9.540;2023-05-01T02:35:46;100283.41;;;4.01;100.00
75136;BME280;63707;52.212;9.540;2023-05-01T02:38:12;100279.31;;;4.23;100.00
75136;BME280;63707;52.212;9.540;2023-05-01T02:40:42;100270.47;;;4.38;100.00
75136;BME280;63707;52.212;9.540;2023-05-01T02:43:09;100269.88;;;4.61;100.00
75136;BME280;63707;52.212;9.540;2023-05-01T02:45:37;100266.84;;;4.56;100.00
75136;BME280;63707;52.212;9.540;2023-05-01T02:48:05;100254.97;;;4.40;100.00
75136;BME280;63707;52.212;9.540;2023-05-01T02:50:32;100268.78;;;4.37;100.00
75136;BME280;63707;52.212;9.540;2023-05-01T02:52:59;100256.94;;;4.30;100.00
75136;BME280;63707;52.212;9.540;2023-05-01T02:55:25;100257.84;;;4.39;100.00
75136;BME280;63707;52.212;9.540;2023-05-01T02:57:56;100251.81;;;4.19;100.00
75136;BME280;63707;52.212;9.540;2023-05-01T03:00:21;100260.03;;;4.09;100.00
75136;BME280;63707;52.212;9.540;2023-05-01T03:02:47;100253.63;;;4.10;100.00
75136;BME280;63707;52.212;9.540;2023-05-01T03:05:13;100247.38;;;4.10;100.00
75136;BME280;63707;52.212;9.540;2023-05-01T03:07:38;100248.63;;;4.24;100.00
75136;BME280;63707;52.212;9.540;2023-05-01T03:10:05;100245.50;;;4.02;100.00
75136;BME280;63707;52.212;9.540;2023-05-01T03:12:32;100245.22;;;4.14;100.00
75136;BME280;63707;52.212;9.540;2023-05-01T03:14:59;100237.78;;;4.07;100.00
75136;BME280;63707;52.212;9.540;2023-05-01T03:17:24;100241.47;;;4.06;100.00
75136;BME280;63707;52.212;9.540;2023-05-01T03:19:50;100237.53;;;3.93;100.00
75136;BME280;63707;52.212;9.540;2023-05-01T03:22:16;100238.94;;;4.05;100.00
75136;BME280;63707;52.212;9.540;2023-05-01T03:24:41;100235.34;;;3.96;100.00
75136;BME280;63707;52.212;9.540;2023-05-01T03:27:07;100225.72;;;3.94;100.00
75136;BME280;63707;52.212;9.540;2023-05-01T03:29:32;100223.88;;;3.94;100.00
75136;BME280;63707;52.212;9.540;2023-05-01T03:31:59;100223.88;;;3.94;100.00
75136;BME280;63707;52.212;9.540;2023-05-01T03:34:25;100223.28;;;4.08;100.00
75136;BME280;63707;52.212;9.540;2023-05-01T03:36:51;100220.59;;;4.08;100.00
75136;BME280;63707;52.212;9.540;2023-05-01T03:39:17;100214.09;;;3.93;100.00
75136;BME280;63707;52.212;9.540;2023-05-01T03:41:43;100213.28;;;3.75;100.00
75136;BME280;63707;52.212;9.540;2023-05-01T03:44:08;100204.69;;;3.71;100.00
75136;BME280;63707;52.212;9.540;2023-05-01T03:46:34;100204.53;;;3.73;100.00
75136;BME280;63707;52.212;9.540;2023-05-01T03:49:01;100203.13;;;3.87;100.00
75136;BME280;63707;52.212;9.540;2023-05-01T03:51:27;100207.06;;;3.74;100.00
75136;BME280;63707;52.212;9.540;2023-05-01T03:53:52;100203.38;;;3.75;100.00
75136;BME280;63707;52.212;9.540;2023-05-01T03:56:20;100193.38;;;3.68;100.00
75136;BME280;63707;52.212;9.540;2023-05-01T03:58:46;100194.50;;;3.57;100.00
75136;BME280;63707;52.212;9.540;2023-05-01T04:01:12;100187.78;;;3.61;100.00
75136;BME280;63707;52.212;9.540;2023-05-01T04:03:37;100192.28;;;3.53;100.00
75136;BME280;63707;52.212;9.540;2023-05-01T04:06:04;100193.50;;;3.58;100.00
75136;BME280;63707;52.212;9.540;2023-05-01T04:08:30;100186.78;;;3.62;100.00
75136;BME280;63707;52.212;9.540;2023-05-01T04:10:56;100189.78;;;3.59;100.00
75136;BME280;63707;52.212;9.540;2023-05-01T04:13:21;100190.16;;;3.64;100.00
75136;BME280;63707;52.212;9.540;2023-05-01T04:15:47;100193.91;;;3.71;100.00
75136;BME280;63707;52.212;9.540;2023-05-01T04:18:12;100183.13;;;3.71;100.00
75136;BME280;63707;52.212;9.540;2023-05-01T04:20:38;100186.50;;;3.73;100.00
75136;BME280;63707;52.212;9.540;2023-05-01T04:23:05;100186.19;;;3.76;100.00
75136;BME280;63707;52.212;9.540;2023-05-01T04:25:31;100186.75;;;3.80;100.00
75136;BME280;63707;52.212;9.540;2023-05-01T04:27:57;100185.19;;;3.77;100.00
75136;BME280;63707;52.212;9.540;2023-05-01T04:30:22;100173.63;;;3.85;100.00
75136;BME280;63707;52.212;9.540;2023-05-01T04:32:48;100175.53;;;3.93;100.00
75136;BME280;63707;52.212;9.540;2023-05-01T04:35:14;100181.63;;;4.03;100.00
75136;BME280;63707;52.212;9.540;2023-05-01T04:37:39;100178.94;;;4.03;100.00
75136;BME280;63707;52.212;9.540;2023-05-01T04:40:07;100173.22;;;4.06;100.00
75136;BME280;63707;52.212;9.540;2023-05-01T04:42:33;100178.97;;;4.11;100.00
75136;BME280;63707;52.212;9.540;2023-05-01T04:44:58;100169.91;;;4.20;100.00
75136;BME280;63707;52.212;9.540;2023-05-01T04:47:28;100171.97;;;4.26;100.00
75136;BME280;63707;52.212;9.540;2023-05-01T04:49:53;100167.28;;;4.36;100.00
75136;BME280;63707;52.212;9.540;2023-05-01T04:52:19;100163.09;;;4.50;100.00
75136;BME280;63707;52.212;9.540;2023-05-01T04:54:45;100161.59;;;4.56;100.00
75136;BME280;63707;52.212;9.540;2023-05-01T04:57:11;100158.25;;;4.70;100.00
75136;BME280;63707;52.212;9.540;2023-05-01T04:59:37;100154.25;;;4.82;100.00
75136;BME280;63707;52.212;9.540;2023-05-01T05:02:03;100161.34;;;4.91;100.00
75136;BME280;63707;52.212;9.540;2023-05-01T05:04:28;100162.69;;;4.95;100.00
75136;BME280;63707;52.212;9.540;2023-05-01T05:06:54;100152.88;;;4.86;100.00
75136;BME280;63707;52.212;9.540;2023-05-01T05:09:19;100162.50;;;4.89;100.00
75136;BME280;63707;52.212;9.540;2023-05-01T05:11:45;100158.13;;;4.96;100.00
75136;BME280;63707;52.212;9.540;2023-05-01T05:14:12;100162.50;;;5.13;100.00
75136;BME280;63707;52.212;9.540;2023-05-01T05:16:37;100155.25;;;5.46;100.00
75136;BME280;63707;52.212;9.540;2023-05-01T05:19:03;100156.41;;;5.68;100.00
75136;BME280;63707;52.212;9.540;2023-05-01T05:21:28;100156.84;;;5.88;100.00
75136;BME280;63707;52.212;9.540;2023-05-01T05:23:54;100149.41;;;5.98;100.00
75136;BME280;63707;52.212;9.540;2023-05-01T05:26:20;100149.03;;;6.48;100.00
75136;BME280;63707;52.212;9.540;2023-05-01T05:28:46;100152.31;;;6.89;100.00
75136;BME280;63707;52.212;9.540;2023-05-01T05:31:13;100149.63;;;7.12;100.00
75136;BME280;63707;52.212;9.540;2023-05-01T05:33:38;100145.56;;;7.31;100.00
75136;BME280;63707;52.212;9.540;2023-05-01T05:36:04;100145.66;;;7.38;100.00
75136;BME280;63707;52.212;9.540;2023-05-01T05:38:30;100144.22;;;7.65;100.00
75136;BME280;63707;52.212;9.540;2023-05-01T05:40:56;100143.97;;;7.74;100.00
75136;BME280;63707;52.212;9.540;2023-05-01T05:43:23;100135.81;;;8.04;100.00
75136;BME280;63707;52.212;9.540;2023-05-01T05:45:49;100130.84;;;8.22;100.00
75136;BME280;63707;52.212;9.540;2023-05-01T05:48:16;100134.31;;;8.16;100.00
75136;BME280;63707;52.212;9.540;2023-05-01T05:50:41;100135.06;;;8.25;100.00
75136;BME280;63707;52.212;9.540;2023-05-01T05:53:06;100126.19;;;8.16;100.00
75136;BME280;63707;52.212;9.540;2023-05-01T05:55:33;100130.94;;;8.29;100.00
75136;BME280;63707;52.212;9.540;2023-05-01T05:57:58;100122.81;;;8.14;100.00
75136;BME280;63707;52.212;9.540;2023-05-01T06:00:24;100118.59;;;8.11;100.00
75136;BME280;63707;52.212;9.540;2023-05-01T06:02:49;100131.13;;;8.27;100.00
75136;BME280;63707;52.212;9.540;2023-05-01T06:05:17;100123.56;;;8.08;100.00
75136;BME280;63707;52.212;9.540;2023-05-01T06:07:42;100118.56;;;8.56;100.00
75136;BME280;63707;52.212;9.540;2023-05-01T06:10:09;100118.63;;;8.62;100.00
75136;BME280;63707;52.212;9.540;2023-05-01T06:12:34;100113.00;;;9.28;100.00
75136;BME280;63707;52.212;9.540;2023-05-01T06:15:00;100121.84;;;9.64;100.00
75136;BME280;63707;52.212;9.540;2023-05-01T06:17:26;100115.34;;;9.59;100.00
75136;BME280;63707;52.212;9.540;2023-05-01T06:19:52;100117.78;;;9.26;100.00
75136;BME280;63707;52.212;9.540;2023-05-01T06:22:19;100114.41;;;9.24;100.00
75136;BME280;63707;52.212;9.540;2023-05-01T06:24:44;100125.59;;;8.35;100.00
75136;BME280;63707;52.212;9.540;2023-05-01T06:27:10;100118.06;;;8.67;100.00
75136;BME280;63707;52.212;9.540;2023-05-01T06:29:36;100114.28;;;9.32;100.00
75136;BME280;63707;52.212;9.540;2023-05-01T06:32:01;100112.03;;;9.14;100.00
75136;BME280;63707;52.212;9.540;2023-05-01T06:34:27;100116.41;;;9.36;100.00
75136;BME280;63707;52.212;9.540;2023-05-01T06:36:52;100110.22;;;9.21;100.00
75136;BME280;63707;52.212;9.540;2023-05-01T06:39:19;100112.50;;;8.75;100.00
75136;BME280;63707;52.212;9.540;2023-05-01T06:41:45;100105.63;;;9.22;100.00
75136;BME280;63707;52.212;9.540;2023-05-01T06:44:11;100106.88;;;9.82;100.00
75136;BME280;63707;52.212;9.540;2023-05-01T06:46:37;100101.94;;;8.87;100.00
75136;BME280;63707;52.212;9.540;2023-05-01T06:49:02;100097.81;;;9.12;100.00
75136;BME280;63707;52.212;9.540;2023-05-01T06:51:28;100098.75;;;9.26;100.00
75136;BME280;63707;52.212;9.540;2023-05-01T06:53:55;100097.78;;;9.96;100.00
75136;BME280;63707;52.212;9.540;2023-05-01T06:56:22;100094.31;;;10.15;100.00
75136;BME280;63707;52.212;9.540;2023-05-01T06:58:48;100093.25;;;10.16;100.00
75136;BME280;63707;52.212;9.540;2023-05-01T07:01:13;100088.94;;;11.49;100.00
75136;BME280;63707;52.212;9.540;2023-05-01T07:03:39;100081.59;;;12.27;100.00
75136;BME280;63707;52.212;9.540;2023-05-01T07:06:04;100071.78;;;12.96;100.00
75136;BME280;63707;52.212;9.540;2023-05-01T07:08:30;100073.78;;;12.44;100.00
75136;BME280;63707;52.212;9.540;2023-05-01T07:10:55;100073.41;;;12.27;100.00
75136;BME280;63707;52.212;9.540;2023-05-01T07:13:22;100063.44;;;12.52;100.00
75136;BME280;63707;52.212;9.540;2023-05-01T07:15:48;100070.50;;;12.98;100.00
75136;BME280;63707;52.212;9.540;2023-05-01T07:18:14;100067.09;;;12.71;100.00
75136;BME280;63707;52.212;9.540;2023-05-01T07:20:41;100059.78;;;12.65;100.00
75136;BME280;63707;52.212;9.540;2023-05-01T07:23:07;100072.06;;;11.98;100.00
75136;BME280;63707;52.212;9.540;2023-05-01T07:25:33;100057.25;;;12.64;100.00
75136;BME280;63707;52.212;9.540;2023-05-01T07:28:00;100063.56;;;12.96;100.00
75136;BME280;63707;52.212;9.540;2023-05-01T07:30:30;100063.00;;;12.87;100.00
75136;BME280;63707;52.212;9.540;2023-05-01T07:32:57;100058.28;;;13.01;100.00
75136;BME280;63707;52.212;9.540;2023-05-01T07:35:23;100055.59;;;12.94;100.00
75136;BME280;63707;52.212;9.540;2023-05-01T07:37:48;100069.22;;;11.47;100.00
75136;BME280;63707;52.212;9.540;2023-05-01T07:40:16;100061.03;;;12.24;100.00
75136;BME280;63707;52.212;9.540;2023-05-01T07:42:41;100060.78;;;13.34;100.00
75136;BME280;63707;52.212;9.540;2023-05-01T07:45:07;100044.22;;;12.97;100.00
75136;BME280;63707;52.212;9.540;2023-05-01T07:47:34;100048.56;;;12.73;100.00
75136;BME280;63707;52.212;9.540;2023-05-01T07:50:00;100039.78;;;14.07;100.00
75136;BME280;63707;52.212;9.540;2023-05-01T07:52:26;100039.44;;;14.82;100.00
75136;BME280;63707;52.212;9.540;2023-05-01T07:54:51;100034.56;;;14.96;100.00
75136;BME280;63707;52.212;9.540;2023-05-01T07:57:17;100027.97;;;14.25;100.00
75136;BME280;63707;52.212;9.540;2023-05-01T07:59:43;100030.34;;;14.70;100.00
75136;BME280;63707;52.212;9.540;2023-05-01T08:02:08;100030.84;;;15.67;100.00
75136;BME280;63707;52.212;9.540;2023-05-01T08:04:35;100023.19;;;15.69;100.00
75136;BME280;63707;52.212;9.540;2023-05-01T08:07:00;100018.34;;;15.99;100.00
75136;BME280;63707;52.212;9.540;2023-05-01T08:09:26;100016.50;;;15.77;100.00
75136;BME280;63707;52.212;9.540;2023-05-01T08:11:51;100010.94;;;16.00;100.00
75136;BME280;63707;52.212;9.540;2023-05-01T08:14:17;100010.72;;;16.30;100.00
75136;BME280;63707;52.212;9.540;2023-05-01T08:16:43;99996.75;;;17.05;100.00
75136;BME280;63707;52.212;9.540;2023-05-01T08:19:09;100019.94;;;15.49;100.00
75136;BME280;63707;52.212;9.540;2023-05-01T08:21:36;100004.47;;;16.91;100.00
75136;BME280;63707;52.212;9.540;2023-05-01T08:24:01;99999.84;;;17.64;100.00
75136;BME280;63707;52.212;9.540;2023-05-01T08:26:27;100003.44;;;17.48;100.00
75136;BME280;63707;52.212;9.540;2023-05-01T08:28:52;100006.38;;;16.17;100.00
75136;BME280;63707;52.212;9.540;2023-05-01T08:31:18;99999.97;;;16.68;100.00
75136;BME280;63707;52.212;9.540;2023-05-01T08:33:45;100003.56;;;17.36;100.00
75136;BME280;63707;52.212;9.540;2023-05-01T08:36:10;100006.66;;;16.89;100.00
75136;BME280;63707;52.212;9.540;2023-05-01T08:38:37;99999.31;;;16.95;100.00
75136;BME280;63707;52.212;9.540;2023-05-01T08:41:03;99997.03;;;17.98;100.00
75136;BME280;63707;52.212;9.540;2023-05-01T08:43:29;99995.84;;;17.72;100.00
75136;BME280;63707;52.212;9.540;2023-05-01T08:45:57;99988.28;;;19.40;97.44
75136;BME280;63707;52.212;9.540;2023-05-01T08:48:24;99993.72;;;19.67;91.46
75136;BME280;63707;52.212;9.540;2023-05-01T08:50:50;99988.78;;;19.00;86.63
75136;BME280;63707;52.212;9.540;2023-05-01T08:53:19;99992.56;;;18.40;95.81
75136;BME280;63707;52.212;9.540;2023-05-01T08:55:48;99995.19;;;19.06;88.17
75136;BME280;63707;52.212;9.540;2023-05-01T08:58:16;99989.72;;;19.16;92.57
75136;BME280;63707;52.212;9.540;2023-05-01T09:00:44;99982.50;;;18.29;95.29
75136;BME280;63707;52.212;9.540;2023-05-01T09:03:11;99976.94;;;19.05;93.55
75136;BME280;63707;52.212;9.540;2023-05-01T09:05:38;99984.66;;;17.06;100.00
75136;BME280;63707;52.212;9.540;2023-05-01T09:08:03;99978.75;;;18.13;100.00
75136;BME280;63707;52.212;9.540;2023-05-01T09:10:29;99984.31;;;17.19;100.00
75136;BME280;63707;52.212;9.540;2023-05-01T09:13:00;99970.19;;;18.91;94.33
75136;BME280;63707;52.212;9.540;2023-05-01T09:15:26;99966.59;;;19.64;95.27
75136;BME280;63707;52.212;9.540;2023-05-01T09:17:52;99970.75;;;19.62;93.48
75136;BME280;63707;52.212;9.540;2023-05-01T09:20:18;99968.19;;;19.18;93.48
75136;BME280;63707;52.212;9.540;2023-05-01T09:22:44;99967.66;;;20.10;85.39
75136;BME280;63707;52.212;9.540;2023-05-01T09:25:09;99965.97;;;18.83;91.43
75136;BME280;63707;52.212;9.540;2023-05-01T09:27:36;99963.72;;;19.49;82.66
75136;BME280;63707;52.212;9.540;2023-05-01T09:30:04;99952.63;;;21.35;74.98
75136;BME280;63707;52.212;9.540;2023-05-01T09:32:31;99962.69;;;20.12;74.19
75136;BME280;63707;52.212;9.540;2023-05-01T09:35:08;99955.91;;;20.51;79.91
75136;BME280;63707;52.212;9.540;2023-05-01T09:37:34;99962.94;;;19.16;80.12
75136;BME280;63707;52.212;9.540;2023-05-01T09:40:02;99954.38;;;18.81;84.23
75136;BME280;63707;52.212;9.540;2023-05-01T09:42:29;99947.00;;;20.38;84.23
75136;BME280;63707;52.212;9.540;2023-05-01T09:44:55;99949.25;;;20.41;76.71
75136;BME280;63707;52.212;9.540;2023-05-01T09:47:22;99951.75;;;20.73;79.18
75136;BME280;63707;52.212;9.540;2023-05-01T09:49:47;99935.50;;;21.97;73.81
75136;BME280;63707;52.212;9.540;2023-05-01T09:52:14;99941.94;;;20.15;76.72
75136;BME280;63707;52.212;9.540;2023-05-01T09:54:40;99948.56;;;19.14;85.59
75136;BME280;63707;52.212;9.540;2023-05-01T09:57:06;99948.22;;;19.90;81.08
75136;BME280;63707;52.212;9.540;2023-05-01T09:59:31;99946.28;;;19.43;84.48
75136;BME280;63707;52.212;9.540;2023-05-01T10:01:59;99947.41;;;19.47;83.93
75136;BME280;63707;52.212;9.540;2023-05-01T10:04:30;99941.72;;;18.90;87.10
75136;BME280;63707;52.212;9.540;2023-05-01T10:06:56;99934.41;;;19.43;88.44
75136;BME280;63707;52.212;9.540;2023-05-01T10:09:26;99935.31;;;20.16;84.19
75136;BME280;63707;52.212;9.540;2023-05-01T10:11:53;99940.09;;;18.35;93.37
75136;BME280;63707;52.212;9.540;2023-05-01T10:14:19;99938.31;;;19.52;91.03
75136;BME280;63707;52.212;9.540;2023-05-01T10:16:48;99931.00;;;20.61;82.80
75136;BME280;63707;52.212;9.540;2023-05-01T10:19:13;99938.84;;;18.21;96.56
75136;BME280;63707;52.212;9.540;2023-05-01T10:21:42;99934.13;;;19.02;96.85
75136;BME280;63707;52.212;9.540;2023-05-01T10:24:08;99925.81;;;19.39;94.78
75136;BME280;63707;52.212;9.540;2023-05-01T10:26:34;99929.13;;;17.91;100.00
75136;BME280;63707;52.212;9.540;2023-05-01T10:29:01;99921.78;;;19.15;95.09
75136;BME280;63707;52.212;9.540;2023-05-01T10:31:27;99917.31;;;18.72;100.00
75136;BME280;63707;52.212;9.540;2023-05-01T10:33:54;99919.47;;;18.43;100.00
75136;BME280;63707;52.212;9.540;2023-05-01T10:36:23;99915.75;;;18.86;95.61
75136;BME280;63707;52.212;9.540;2023-05-01T10:38:51;99912.09;;;20.32;92.21
75136;BME280;63707;52.212;9.540;2023-05-01T10:41:17;99911.81;;;18.77;100.00
75136;BME280;63707;52.212;9.540;2023-05-01T10:44:22;99901.66;;;20.70;100.00
75136;BME280;63707;52.212;9.540;2023-05-01T10:46:48;99908.91;;;18.35;98.26
75136;BME280;63707;52.212;9.540;2023-05-01T10:49:13;99906.44;;;18.92;100.00
75136;BME280;63707;52.212;9.540;2023-05-01T10:51:57;99899.56;;;19.94;97.27
75136;BME280;63707;52.212;9.540;2023-05-01T10:54:25;99893.34;;;20.39;90.20
75136;BME280;63707;52.212;9.540;2023-05-01T10:56:51;99888.81;;;18.98;95.45
75136;BME280;63707;52.212;9.540;2023-05-01T10:59:17;99890.22;;;20.31;87.48
75136;BME280;63707;52.212;9.540;2023-05-01T11:01:43;99880.84;;;21.39;85.65
75136;BME280;63707;52.212;9.540;2023-05-01T11:07:14;99884.09;;;19.98;81.91
75136;BME280;63707;52.212;9.540;2023-05-01T11:09:44;99874.75;;;22.45;74.35
75136;BME280;63707;52.212;9.540;2023-05-01T11:12:11;99870.19;;;21.61;75.38
75136;BME280;63707;52.212;9.540;2023-05-01T11:15:03;99867.66;;;22.63;74.79
75136;BME280;63707;52.212;9.540;2023-05-01T11:17:44;99882.00;;;19.63;85.54
75136;BME280;63707;52.212;9.540;2023-05-01T11:20:10;99872.84;;;20.40;84.28
75136;BME280;63707;52.212;9.540;2023-05-01T11:25:16;99863.59;;;22.11;72.37
75136;BME280;63707;52.212;9.540;2023-05-01T11:27:46;99867.03;;;20.67;81.62
75136;BME280;63707;52.212;9.540;2023-05-01T11:30:12;99875.00;;;20.33;82.47
75136;BME280;63707;52.212;9.540;2023-05-01T11:32:42;99861.25;;;20.49;86.45
75136;BME280;63707;52.212;9.540;2023-05-01T11:35:15;99857.84;;;21.33;74.99
75136;BME280;63707;52.212;9.540;2023-05-01T11:37:41;99853.94;;;22.43;83.16
75136;BME280;63707;52.212;9.540;2023-05-01T11:40:19;99848.97;;;21.31;78.06
75136;BME280;63707;52.212;9.540;2023-05-01T11:42:45;99860.63;;;20.21;81.70
75136;BME280;63707;52.212;9.540;2023-05-01T11:45:11;99852.91;;;20.79;81.49
75136;BME280;63707;52.212;9.540;2023-05-01T11:47:37;99862.38;;;18.43;88.27
75136;BME280;63707;52.212;9.540;2023-05-01T11:50:04;99852.09;;;20.73;81.09
75136;BME280;63707;52.212;9.540;2023-05-01T11:52:40;99857.28;;;20.19;78.22
75136;BME280;63707;52.212;9.540;2023-05-01T11:55:06;99854.53;;;21.11;75.99
75136;BME280;63707;52.212;9.540;2023-05-01T11:57:43;99848.94;;;22.06;76.19
75136;BME280;63707;52.212;9.540;2023-05-01T12:00:10;99864.03;;;18.44;85.21
75136;BME280;63707;52.212;9.540;2023-05-01T12:02:36;99845.41;;;20.29;86.26
75136;BME280;63707;52.212;9.540;2023-05-01T12:05:13;99845.56;;;19.71;86.33
75136;BME280;63707;52.212;9.540;2023-05-01T12:07:39;99855.81;;;18.81;87.49
75136;BME280;63707;52.212;9.540;2023-05-01T12:10:06;99855.84;;;19.34;89.54
75136;BME280;63707;52.212;9.540;2023-05-01T12:12:32;99851.09;;;18.77;90.45
75136;BME280;63707;52.212;9.540;2023-05-01T12:14:59;99861.44;;;17.79;96.23
75136;BME280;63707;52.212;9.540;2023-05-01T12:17:25;99850.19;;;18.39;95.00
75136;BME280;63707;52.212;9.540;2023-05-01T12:19:52;99859.47;;;17.74;94.62
75136;BME280;63707;52.212;9.540;2023-05-01T12:22:18;99857.88;;;17.78;97.96
75136;BME280;63707;52.212;9.540;2023-05-01T12:24:50;99846.66;;;18.12;94.74
75136;BME280;63707;52.212;9.540;2023-05-01T12:27:19;99845.56;;;18.13;93.09
75136;BME280;63707;52.212;9.540;2023-05-01T12:29:45;99843.34;;;19.16;92.11
75136;BME280;63707;52.212;9.540;2023-05-01T12:32:13;99843.03;;;18.70;95.27
75136;BME280;63707;52.212;9.540;2023-05-01T12:34:40;99852.75;;;18.14;91.16
75136;BME280;63707;52.212;9.540;2023-05-01T12:37:06;99838.91;;;19.10;88.04
75136;BME280;63707;52.212;9.540;2023-05-01T12:39:35;99843.34;;;19.16;87.35
75136;BME280;63707;52.212;9.540;2023-05-01T12:42:02;99838.81;;;19.52;84.36
75136;BME280;63707;52.212;9.540;2023-05-01T12:44:28;99829.34;;;19.38;88.09
75136;BME280;63707;52.212;9.540;2023-05-01T12:46:58;99828.16;;;19.86;81.80
75136;BME280;63707;52.212;9.540;2023-05-01T12:49:26;99831.81;;;20.02;77.75
75136;BME280;63707;52.212;9.540;2023-05-01T12:51:54;99829.91;;;18.87;81.38
75136;BME280;63707;52.212;9.540;2023-05-01T12:54:21;99826.81;;;19.89;76.92
75136;BME280;63707;52.212;9.540;2023-05-01T12:56:47;99818.03;;;20.37;75.72
75136;BME280;63707;52.212;9.540;2023-05-01T12:59:20;99808.91;;;20.62;76.21
75136;BME280;63707;52.212;9.540;2023-05-01T13:01:47;99807.50;;;20.29;76.91